createdAt,value
2024-03-07T00:00:22.902Z,6.59
2024-03-07T00:02:51.826Z,6.53
2024-03-07T00:05:25.537Z,6.56
2024-03-07T00:07:53.292Z,6.54
2024-03-07T00:10:22.566Z,6.52
2024-03-07T00:12:50.518Z,6.49
2024-03-07T00:15:18.836Z,6.50
2024-03-07T00:17:46.830Z,6.50
2024-03-07T00:20:17.148Z,6.51
2024-03-07T00:22:46.675Z,6.49
2024-03-07T00:25:20.302Z,6.45
2024-03-07T00:27:47.939Z,6.47
2024-03-07T00:30:19.414Z,6.42
2024-03-07T00:32:48.310Z,6.33
2024-03-07T00:35:16.296Z,6.32
2024-03-07T00:37:44.009Z,6.25
2024-03-07T00:40:14.156Z,6.28
2024-03-07T00:42:41.772Z,6.13
2024-03-07T00:45:10.362Z,6.09
2024-03-07T00:47:39.341Z,6.06
2024-03-07T00:50:10.530Z,6.08
2024-03-07T00:52:39.167Z,6.06
2024-03-07T00:55:09.433Z,6.03
2024-03-07T00:57:39.186Z,6.00
2024-03-07T01:00:12.830Z,5.96
2024-03-07T01:02:44.196Z,5.98
2024-03-07T01:05:14.300Z,5.95
2024-03-07T01:07:42.335Z,5.91
2024-03-07T01:10:10.569Z,5.90
2024-03-07T01:12:39.642Z,5.88
2024-03-07T01:15:08.107Z,5.86
2024-03-07T01:17:35.835Z,5.87
2024-03-07T01:20:03.845Z,5.88
2024-03-07T01:22:31.431Z,5.87
2024-03-07T01:24:59.149Z,5.87
2024-03-07T01:27:26.800Z,5.85
2024-03-07T01:29:55.881Z,5.85
2024-03-07T01:32:23.597Z,5.88
2024-03-07T01:34:51.345Z,5.88
2024-03-07T01:37:18.962Z,5.85
2024-03-07T01:39:47.724Z,5.87
2024-03-07T01:42:15.668Z,5.86
2024-03-07T01:44:44.980Z,5.85
2024-03-07T01:47:15.621Z,5.83
2024-03-07T01:49:43.344Z,5.81
2024-03-07T01:52:12.724Z,5.80
2024-03-07T01:54:40.446Z,5.80
2024-03-07T01:57:09.146Z,5.82
2024-03-07T01:59:37.372Z,5.83
2024-03-07T02:02:05.455Z,5.85
2024-03-07T02:04:34.466Z,5.83
2024-03-07T02:07:02.134Z,5.80
2024-03-07T02:09:29.762Z,5.80
2024-03-07T02:11:58.194Z,5.81
2024-03-07T02:14:26.209Z,5.81
2024-03-07T02:16:53.867Z,5.83
2024-03-07T02:19:21.839Z,5.84
2024-03-07T02:21:50.790Z,5.83
2024-03-07T02:24:18.446Z,5.82
2024-03-07T02:26:46.099Z,5.77
2024-03-07T02:29:13.797Z,5.79
2024-03-07T02:31:42.672Z,5.79
2024-03-07T02:34:10.437Z,5.79
2024-03-07T02:36:38.140Z,5.80
2024-03-07T02:39:07.413Z,5.82
2024-03-07T02:41:36.065Z,5.80
2024-03-07T02:44:04.774Z,5.79
2024-03-07T02:46:33.328Z,5.74
2024-03-07T02:49:01.242Z,5.71
2024-03-07T02:51:28.945Z,5.73
2024-03-07T02:53:56.638Z,5.76
2024-03-07T02:56:26.045Z,5.80
2024-03-07T02:58:53.935Z,5.80
2024-03-07T03:01:21.693Z,5.75
2024-03-07T03:03:49.584Z,5.73
2024-03-07T03:06:17.268Z,5.73
2024-03-07T03:08:44.916Z,5.68
2024-03-07T03:11:15.137Z,5.68
2024-03-07T03:13:44.984Z,5.65
2024-03-07T03:16:12.624Z,5.67
2024-03-07T03:18:40.332Z,5.64
2024-03-07T03:21:08.769Z,5.62
2024-03-07T03:23:36.751Z,5.61
2024-03-07T03:26:04.803Z,5.57
2024-03-07T03:28:32.826Z,5.56
2024-03-07T03:31:01.809Z,5.48
2024-03-07T03:33:29.531Z,5.43
2024-03-07T03:35:57.483Z,5.37
2024-03-07T03:38:25.251Z,5.31
2024-03-07T03:40:53.068Z,5.22
2024-03-07T03:43:20.843Z,5.13
2024-03-07T03:45:48.871Z,5.02
2024-03-07T03:48:18.276Z,4.94
2024-03-07T03:50:47.579Z,4.84
2024-03-07T03:53:15.453Z,4.76
2024-03-07T03:55:43.121Z,4.68
2024-03-07T03:58:11.609Z,4.61
2024-03-07T04:00:40.320Z,4.57
2024-03-07T04:03:08.266Z,4.49
2024-03-07T04:05:37.375Z,4.41
2024-03-07T04:08:06.521Z,4.28
2024-03-07T04:10:34.143Z,4.22
2024-03-07T04:13:01.898Z,4.17
2024-03-07T04:15:34.127Z,4.12
2024-03-07T04:18:03.673Z,4.05
2024-03-07T04:20:31.371Z,3.96
2024-03-07T04:23:00.345Z,3.91
2024-03-07T04:25:29.455Z,3.87
2024-03-07T04:27:57.050Z,3.79
2024-03-07T04:30:24.625Z,3.73
2024-03-07T04:32:53.230Z,3.70
2024-03-07T04:35:21.082Z,3.62
2024-03-07T04:37:48.770Z,3.58
2024-03-07T04:40:19.109Z,3.55
2024-03-07T04:42:49.666Z,3.49
2024-03-07T04:45:18.256Z,3.48
2024-03-07T04:47:47.220Z,3.45
2024-03-07T04:50:18.461Z,3.38
2024-03-07T04:52:47.410Z,3.34
2024-03-07T04:55:15.813Z,3.32
2024-03-07T04:57:44.942Z,3.28
2024-03-07T05:00:16.903Z,3.25
2024-03-07T05:02:47.552Z,3.24
2024-03-07T05:05:15.936Z,3.22
2024-03-07T05:07:43.741Z,3.18
2024-03-07T05:10:11.927Z,3.13
2024-03-07T05:12:39.550Z,3.10
2024-03-07T05:15:11.022Z,3.12
2024-03-07T05:17:40.173Z,3.09
2024-03-07T05:20:11.221Z,3.09
2024-03-07T05:22:41.670Z,2.97
2024-03-07T05:25:10.290Z,2.90
2024-03-07T05:27:38.140Z,2.84
2024-03-07T05:30:11.187Z,2.78
2024-03-07T05:32:39.843Z,2.73
2024-03-07T05:35:08.754Z,2.73
2024-03-07T05:37:36.646Z,2.68
2024-03-07T05:40:05.101Z,2.65
2024-03-07T05:42:33.381Z,2.61
2024-03-07T05:45:01.359Z,2.61
2024-03-07T05:47:30.640Z,2.58
2024-03-07T05:49:58.305Z,2.54
2024-03-07T05:52:26.087Z,2.54
2024-03-07T05:54:53.684Z,2.53
2024-03-07T05:57:21.266Z,2.52
2024-03-07T05:59:49.044Z,2.51
2024-03-07T06:02:17.303Z,2.51
2024-03-07T06:04:46.910Z,2.54
2024-03-07T06:07:14.540Z,2.52
2024-03-07T06:09:42.172Z,2.56
2024-03-07T06:12:16.673Z,2.59
2024-03-07T06:14:51.409Z,2.70
2024-03-07T06:17:22.428Z,2.72
2024-03-07T06:19:51.652Z,2.81
2024-03-07T06:22:19.259Z,2.87
2024-03-07T06:24:47.246Z,2.92
2024-03-07T06:27:28.071Z,2.95
2024-03-07T06:29:56.206Z,2.98
2024-03-07T06:32:25.067Z,2.98
2024-03-07T06:34:54.568Z,3.63
2024-03-07T06:37:22.736Z,3.29
2024-03-07T06:39:50.395Z,3.10
2024-03-07T06:42:18.878Z,3.01
2024-03-07T06:44:47.181Z,2.93
2024-03-07T06:47:14.931Z,2.84
2024-03-07T06:49:42.596Z,2.85
2024-03-07T06:52:11.619Z,2.95
2024-03-07T06:54:39.408Z,2.96
2024-03-07T06:57:07.006Z,3.07
2024-03-07T06:59:34.649Z,3.35
2024-03-07T07:02:02.584Z,3.34
2024-03-07T07:04:42.601Z,3.31
2024-03-07T07:07:13.898Z,3.24
2024-03-07T07:09:42.963Z,3.16
2024-03-07T07:12:10.798Z,3.07
2024-03-07T07:14:39.138Z,3.19
2024-03-07T07:17:10.224Z,3.16
2024-03-07T07:19:38.796Z,3.24
2024-03-07T07:22:07.282Z,3.30
2024-03-07T07:24:36.418Z,3.44
2024-03-07T07:27:04.493Z,3.43
2024-03-07T07:29:32.175Z,3.46
2024-03-07T07:31:59.891Z,3.46
2024-03-07T07:34:27.482Z,3.45
2024-03-07T07:36:55.307Z,3.47
2024-03-07T07:39:22.979Z,3.53
2024-03-07T07:41:51.924Z,3.54
2024-03-07T07:44:20.443Z,3.52
2024-03-07T07:46:48.036Z,3.61
2024-03-07T07:49:17.018Z,3.65
2024-03-07T07:51:44.580Z,3.71
2024-03-07T07:54:12.158Z,3.73
2024-03-07T07:56:39.722Z,3.82
2024-03-07T07:59:10.406Z,3.90
2024-03-07T08:01:38.095Z,3.99
2024-03-07T08:04:06.101Z,4.08
2024-03-07T08:06:33.761Z,4.18
2024-03-07T08:09:01.568Z,4.96
2024-03-07T08:11:29.298Z,6.00
2024-03-07T08:13:56.956Z,6.28
2024-03-07T08:16:25.943Z,6.82
2024-03-07T08:18:53.596Z,6.66
2024-03-07T08:21:21.256Z,6.39
2024-03-07T08:23:48.909Z,6.04
2024-03-07T08:26:17.244Z,5.94
2024-03-07T08:28:44.968Z,5.76
2024-03-07T08:31:13.614Z,5.73
2024-03-07T08:33:42.701Z,6.07
2024-03-07T08:36:11.162Z,6.44
2024-03-07T08:38:39.427Z,6.27
2024-03-07T08:41:07.111Z,6.08
2024-03-07T08:43:35.068Z,6.13
2024-03-07T08:46:02.687Z,6.11
2024-03-07T08:48:30.742Z,6.18
2024-03-07T08:50:59.841Z,6.26
2024-03-07T08:53:27.517Z,6.19
2024-03-07T08:55:55.133Z,6.19
2024-03-07T08:58:22.712Z,6.24
2024-03-07T09:00:53.336Z,6.32
2024-03-07T09:03:23.008Z,6.43
2024-03-07T09:05:51.748Z,6.50
2024-03-07T09:08:20.753Z,6.51
2024-03-07T09:10:49.168Z,6.54
2024-03-07T09:13:16.773Z,6.48
2024-03-07T09:15:44.489Z,6.53
2024-03-07T09:18:13.204Z,6.59
2024-03-07T09:20:41.123Z,6.75
2024-03-07T09:23:08.858Z,6.84
2024-03-07T09:25:37.877Z,6.88
2024-03-07T09:28:07.114Z,6.86
2024-03-07T09:30:35.978Z,6.95
2024-03-07T09:33:03.768Z,7.18
2024-03-07T09:35:31.742Z,7.22
2024-03-07T09:37:59.402Z,7.17
2024-03-07T09:40:27.924Z,7.44
2024-03-07T09:42:59.049Z,7.67
2024-03-07T09:45:31.477Z,7.76
2024-03-07T09:47:59.954Z,7.96
2024-03-07T09:50:31.327Z,8.24
2024-03-07T09:53:01.772Z,8.53
2024-03-07T09:55:29.669Z,8.73
2024-03-07T09:58:00.897Z,8.98
2024-03-07T10:00:31.342Z,9.04
2024-03-07T10:03:01.429Z,9.26
2024-03-07T10:05:30.858Z,9.48
2024-03-07T10:07:58.895Z,9.20
2024-03-07T10:10:27.107Z,9.10
2024-03-07T10:12:55.321Z,8.91
2024-03-07T10:15:30.038Z,8.94
2024-03-07T10:17:57.929Z,8.49
2024-03-07T10:20:26.026Z,8.59
2024-03-07T10:22:53.819Z,8.47
2024-03-07T10:25:25.331Z,8.55
2024-03-07T10:27:53.665Z,8.49
2024-03-07T10:30:23.110Z,8.01
2024-03-07T10:32:55.969Z,8.17
2024-03-07T10:35:25.359Z,8.19
2024-03-07T10:37:55.017Z,8.25
2024-03-07T10:40:23.554Z,8.34
2024-03-07T10:42:54.155Z,8.27
2024-03-07T10:45:23.527Z,8.59
2024-03-07T10:47:56.830Z,8.84
2024-03-07T10:50:40.299Z,8.75
2024-03-07T10:53:12.516Z,8.68
2024-03-07T10:55:45.890Z,8.95
2024-03-07T10:58:18.738Z,9.25
2024-03-07T11:00:47.667Z,9.40
2024-03-07T11:03:20.353Z,9.65
2024-03-07T11:05:48.857Z,9.50
2024-03-07T11:08:17.598Z,9.57
2024-03-07T11:10:48.259Z,9.89
2024-03-07T11:13:17.801Z,9.85
2024-03-07T11:15:48.952Z,9.97
2024-03-07T11:18:18.687Z,10.00
2024-03-07T11:20:48.280Z,10.04
2024-03-07T11:23:29.807Z,10.32
2024-03-07T11:26:08.398Z,10.37
2024-03-07T11:28:38.360Z,9.80
2024-03-07T11:31:13.792Z,9.96
2024-03-07T11:33:44.735Z,10.08
2024-03-07T11:36:13.970Z,10.44
2024-03-07T11:38:47.191Z,10.75
2024-03-07T11:41:15.164Z,10.77
2024-03-07T11:43:44.416Z,10.95
2024-03-07T11:46:17.601Z,10.90
2024-03-07T11:48:46.854Z,10.89
2024-03-07T11:51:16.428Z,10.86
2024-03-07T11:53:49.021Z,10.80
2024-03-07T11:56:18.648Z,11.03
2024-03-07T11:58:53.300Z,10.92
2024-03-07T12:01:26.204Z,10.73
2024-03-07T12:03:57.631Z,10.38
2024-03-07T12:06:27.345Z,10.56
2024-03-07T12:08:55.099Z,10.73
2024-03-07T12:11:23.127Z,11.09
2024-03-07T12:13:52.271Z,11.16
2024-03-07T12:16:19.998Z,11.33
2024-03-07T12:18:49.576Z,11.48
2024-03-07T12:21:19.828Z,11.00
2024-03-07T12:23:47.662Z,10.69
2024-03-07T12:26:26.079Z,10.92
2024-03-07T12:28:54.278Z,10.96
2024-03-07T12:31:25.684Z,10.97
2024-03-07T12:33:54.022Z,10.41
2024-03-07T12:36:28.047Z,10.17
2024-03-07T12:38:56.740Z,9.97
2024-03-07T12:41:24.588Z,9.82
2024-03-07T12:43:52.812Z,10.06
2024-03-07T12:46:20.628Z,10.51
2024-03-07T12:48:50.311Z,10.38
2024-03-07T12:51:20.453Z,10.44
2024-03-07T12:53:50.520Z,10.23
2024-03-07T12:56:19.000Z,9.99
2024-03-07T12:58:47.875Z,9.92
2024-03-07T13:01:16.432Z,10.03
2024-03-07T13:03:46.674Z,9.86
2024-03-07T13:06:14.602Z,9.67
2024-03-07T13:08:42.555Z,9.59
2024-03-07T13:11:13.171Z,9.48
2024-03-07T13:13:41.437Z,9.19
2024-03-07T13:16:10.256Z,9.05
2024-03-07T13:18:38.789Z,8.99
2024-03-07T13:21:08.263Z,9.14
2024-03-07T13:23:37.342Z,9.15
2024-03-07T13:26:09.788Z,9.19
2024-03-07T13:28:38.988Z,9.09
2024-03-07T13:31:06.711Z,9.19
2024-03-07T13:33:36.355Z,9.23
2024-03-07T13:36:05.617Z,9.32
2024-03-07T13:38:33.234Z,9.45
2024-03-07T13:41:04.679Z,9.63
2024-03-07T13:43:34.832Z,9.56
2024-03-07T13:46:04.991Z,9.57
2024-03-07T13:48:34.243Z,9.81
2024-03-07T13:51:08.889Z,9.97
2024-03-07T13:53:47.909Z,10.12
2024-03-07T13:56:36.541Z,10.08
2024-03-07T13:59:54.114Z,9.89
2024-03-07T14:02:50.279Z,10.07
2024-03-07T14:05:41.206Z,10.02
2024-03-07T14:08:28.143Z,9.92
2024-03-07T14:11:28.540Z,9.74
2024-03-07T14:14:15.278Z,9.84
2024-03-07T14:17:07.483Z,9.99
2024-03-07T14:20:16.599Z,9.94
2024-03-07T14:23:06.742Z,9.96
2024-03-07T14:25:53.037Z,10.12
2024-03-07T14:28:47.577Z,9.97
2024-03-07T14:31:15.397Z,10.03
2024-03-07T14:33:55.883Z,9.81
2024-03-07T14:36:37.814Z,9.90
2024-03-07T14:39:06.608Z,9.76
2024-03-07T14:41:49.816Z,9.71
2024-03-07T14:44:18.538Z,9.62
2024-03-07T14:46:47.994Z,9.52
2024-03-07T14:49:20.382Z,9.57
2024-03-07T14:51:58.635Z,9.58
2024-03-07T14:54:28.650Z,9.50
2024-03-07T14:56:56.828Z,9.48
2024-03-07T14:59:24.692Z,9.47
2024-03-07T15:01:53.650Z,9.56
2024-03-07T15:04:22.326Z,9.50
2024-03-07T15:06:53.409Z,9.50
2024-03-07T15:09:21.613Z,9.52
2024-03-07T15:11:50.464Z,9.48
2024-03-07T15:14:23.022Z,9.45
2024-03-07T15:16:58.496Z,9.48
2024-03-07T15:19:26.095Z,9.38
2024-03-07T15:21:55.118Z,9.37
2024-03-07T15:24:22.749Z,9.41
2024-03-07T15:26:51.563Z,9.41
2024-03-07T15:29:22.995Z,9.34
2024-03-07T15:31:51.671Z,9.41
2024-03-07T15:34:19.249Z,9.43
2024-03-07T15:36:47.728Z,9.43
2024-03-07T15:39:27.440Z,9.44
2024-03-07T15:41:55.790Z,9.42
2024-03-07T15:44:23.554Z,9.44
2024-03-07T15:46:51.246Z,9.44
2024-03-07T15:49:19.269Z,9.43
2024-03-07T15:51:47.608Z,9.42
2024-03-07T15:54:19.644Z,9.34
2024-03-07T15:56:49.805Z,9.28
2024-03-07T15:59:17.567Z,9.23
2024-03-07T16:01:45.466Z,9.18
2024-03-07T16:04:13.525Z,9.18
2024-03-07T16:06:44.854Z,9.16
2024-03-07T16:09:14.596Z,9.17
2024-03-07T16:11:43.643Z,9.13
2024-03-07T16:14:12.729Z,9.13
2024-03-07T16:16:42.456Z,9.13
2024-03-07T16:19:11.498Z,9.12
2024-03-07T16:21:40.082Z,9.10
2024-03-07T16:24:09.604Z,9.05
2024-03-07T16:26:37.576Z,9.09
2024-03-07T16:29:06.987Z,9.03
2024-03-07T16:31:34.609Z,9.06
2024-03-07T16:34:02.249Z,9.05
2024-03-07T16:36:29.882Z,9.08
2024-03-07T16:38:57.842Z,9.12
2024-03-07T16:41:25.725Z,9.17
2024-03-07T16:43:53.359Z,9.18
2024-03-07T16:46:23.060Z,9.16
2024-03-07T16:48:51.363Z,9.22
2024-03-07T16:51:19.021Z,9.21
2024-03-07T16:53:46.694Z,9.11
2024-03-07T16:56:15.742Z,9.12
2024-03-07T16:58:43.409Z,9.09
2024-03-07T17:01:11.164Z,9.04
2024-03-07T17:03:40.150Z,9.03
2024-03-07T17:06:10.925Z,8.96
2024-03-07T17:08:39.180Z,8.91
2024-03-07T17:11:07.649Z,8.83
2024-03-07T17:13:37.908Z,8.76
2024-03-07T17:16:06.340Z,8.67
2024-03-07T17:18:35.143Z,8.54
2024-03-07T17:21:07.355Z,8.47
2024-03-07T17:23:35.026Z,8.40
2024-03-07T17:26:02.737Z,8.34
2024-03-07T17:28:30.893Z,8.21
2024-03-07T17:30:58.508Z,8.17
2024-03-07T17:33:27.061Z,8.10
2024-03-07T17:35:55.161Z,8.14
2024-03-07T17:38:24.176Z,8.09
2024-03-07T17:40:51.746Z,8.06
2024-03-07T17:43:19.787Z,8.03
2024-03-07T17:45:47.538Z,7.98
2024-03-07T17:48:15.227Z,7.95
2024-03-07T17:50:44.762Z,7.97
2024-03-07T17:53:14.991Z,7.91
2024-03-07T17:55:44.800Z,7.87
2024-03-07T17:58:14.284Z,7.90
2024-03-07T18:00:43.802Z,7.92
2024-03-07T18:03:12.361Z,7.96
2024-03-07T18:05:44.186Z,7.94
2024-03-07T18:08:33.560Z,7.94
2024-03-07T18:11:07.509Z,7.88
2024-03-07T18:13:35.422Z,7.88
2024-03-07T18:16:03.040Z,7.88
2024-03-07T18:18:33.291Z,7.91
2024-03-07T18:21:02.294Z,7.84
2024-03-07T18:23:30.313Z,7.86
2024-03-07T18:26:00.875Z,7.81
2024-03-07T18:28:30.024Z,7.78
2024-03-07T18:31:01.094Z,7.77
2024-03-07T18:33:32.342Z,7.74
2024-03-07T18:36:01.543Z,7.73
2024-03-07T18:38:29.338Z,7.71
2024-03-07T18:40:57.114Z,7.70
2024-03-07T18:43:24.742Z,7.73
2024-03-07T18:45:53.789Z,7.71
2024-03-07T18:48:21.459Z,7.73
2024-03-07T18:50:50.194Z,7.76
2024-03-07T18:53:21.039Z,7.74
2024-03-07T18:55:51.002Z,7.80
2024-03-07T18:58:23.442Z,7.79
2024-03-07T19:00:51.328Z,7.76
2024-03-07T19:03:22.398Z,7.77
2024-03-07T19:05:53.096Z,7.80
2024-03-07T19:08:25.058Z,7.79
2024-03-07T19:10:54.412Z,7.79
2024-03-07T19:13:22.407Z,7.76
2024-03-07T19:15:53.217Z,7.74
2024-03-07T19:18:23.478Z,7.80
2024-03-07T19:20:55.582Z,7.76
2024-03-07T19:23:25.501Z,7.74
2024-03-07T19:25:53.640Z,7.72
2024-03-07T19:28:21.443Z,7.70
2024-03-07T19:30:51.787Z,7.66
2024-03-07T19:33:21.566Z,7.59
2024-03-07T19:35:53.317Z,7.53
2024-03-07T19:38:21.283Z,7.50
2024-03-07T19:40:50.992Z,7.44
2024-03-07T19:43:20.832Z,7.44
2024-03-07T19:45:48.609Z,7.47
2024-03-07T19:48:16.390Z,7.44
2024-03-07T19:50:46.791Z,7.42
2024-03-07T19:53:16.679Z,7.43
2024-03-07T19:55:46.058Z,7.41
2024-03-07T19:58:14.021Z,7.41
2024-03-07T20:00:45.596Z,7.40
2024-03-07T20:03:15.704Z,7.38
2024-03-07T20:05:43.845Z,7.35
2024-03-07T20:08:15.646Z,7.35
2024-03-07T20:10:48.993Z,7.30
2024-03-07T20:13:17.896Z,7.27
2024-03-07T20:15:46.966Z,7.24
2024-03-07T20:18:15.223Z,7.23
2024-03-07T20:20:44.994Z,7.24
2024-03-07T20:23:14.617Z,7.29
2024-03-07T20:25:42.794Z,7.18
2024-03-07T20:28:13.642Z,7.17
2024-03-07T20:30:43.200Z,7.08
2024-03-07T20:33:11.322Z,6.98
2024-03-07T20:35:39.382Z,6.97
2024-03-07T20:38:10.751Z,6.87
2024-03-07T20:40:38.773Z,6.83
2024-03-07T20:43:06.499Z,6.75
2024-03-07T20:45:36.478Z,6.72
2024-03-07T20:48:06.532Z,6.65
2024-03-07T20:50:40.472Z,6.60
2024-03-07T20:53:10.661Z,6.54
2024-03-07T20:55:41.024Z,6.51
2024-03-07T20:58:10.487Z,6.50
2024-03-07T21:00:46.162Z,6.48
2024-03-07T21:03:15.184Z,6.46
2024-03-07T21:05:44.506Z,6.42
2024-03-07T21:08:12.143Z,6.43
2024-03-07T21:10:40.335Z,6.44
2024-03-07T21:13:08.420Z,6.44
2024-03-07T21:15:36.247Z,6.38
2024-03-07T21:18:09.251Z,6.35
2024-03-07T21:20:37.821Z,6.28
2024-03-07T21:23:08.095Z,6.22
2024-03-07T21:25:36.881Z,6.19
2024-03-07T21:28:06.074Z,6.15
2024-03-07T21:30:33.836Z,6.11
2024-03-07T21:33:01.711Z,6.10
2024-03-07T21:35:31.921Z,6.05
2024-03-07T21:38:00.316Z,6.08
2024-03-07T21:40:28.178Z,6.04
2024-03-07T21:42:56.170Z,6.00
2024-03-07T21:45:23.786Z,5.99
2024-03-07T21:47:51.466Z,6.00
2024-03-07T21:50:20.325Z,5.99
2024-03-07T21:52:50.121Z,5.95
2024-03-07T21:55:20.915Z,5.93
2024-03-07T21:57:49.360Z,5.96
2024-03-07T22:00:19.000Z,5.93
2024-03-07T22:02:57.726Z,5.91
2024-03-07T22:05:29.697Z,5.87
2024-03-07T22:07:59.750Z,5.84
2024-03-07T22:10:28.274Z,5.82
2024-03-07T22:12:56.430Z,5.82
2024-03-07T22:15:24.881Z,5.75
2024-03-07T22:17:54.808Z,5.73
2024-03-07T22:20:24.267Z,5.69
2024-03-07T22:22:53.853Z,5.69
2024-03-07T22:25:23.999Z,5.65
2024-03-07T22:27:53.085Z,5.65
2024-03-07T22:30:24.221Z,5.63
2024-03-07T22:32:53.758Z,5.60
2024-03-07T22:35:22.434Z,5.62
2024-03-07T22:37:52.143Z,5.60
2024-03-07T22:40:26.937Z,5.58
2024-03-07T22:42:54.976Z,5.58
2024-03-07T22:45:23.913Z,5.56
2024-03-07T22:47:53.609Z,5.56
2024-03-07T22:50:28.807Z,5.55
2024-03-07T22:52:59.744Z,5.50
2024-03-07T22:55:29.058Z,5.49
2024-03-07T22:57:56.870Z,5.45
2024-03-07T23:00:28.030Z,5.44
2024-03-07T23:02:59.550Z,5.39
2024-03-07T23:05:28.542Z,5.37
2024-03-07T23:07:56.999Z,5.37
2024-03-07T23:10:24.682Z,5.34
2024-03-07T23:12:54.217Z,5.32
2024-03-07T23:15:25.446Z,5.32
2024-03-07T23:17:55.399Z,5.28
2024-03-07T23:20:25.274Z,5.25
2024-03-07T23:22:55.751Z,5.22
2024-03-07T23:25:23.954Z,5.21
2024-03-07T23:27:54.349Z,5.18
2024-03-07T23:30:24.322Z,5.18
2024-03-07T23:32:53.421Z,5.14
2024-03-07T23:35:21.730Z,5.13
2024-03-07T23:37:51.568Z,5.06
2024-03-07T23:40:19.855Z,5.00
2024-03-07T23:42:49.881Z,5.02
2024-03-07T23:45:19.531Z,4.96
2024-03-07T23:47:48.348Z,4.92
2024-03-07T23:50:16.185Z,4.94
2024-03-07T23:52:45.287Z,4.93
2024-03-07T23:55:14.341Z,4.90
2024-03-07T23:57:43.324Z,4.92
